createdAt,value
2018-08-23T00:00:34.223Z,891.40
2018-08-23T00:01:34.222Z,891.41
2018-08-23T00:02:34.209Z,891.40
2018-08-23T00:03:34.212Z,891.38
2018-08-23T00:04:34.199Z,891.37
2018-08-23T00:05:34.193Z,891.39
2018-08-23T00:06:34.189Z,891.39
2018-08-23T00:07:34.176Z,891.37
2018-08-23T00:08:34.171Z,891.41
2018-08-23T00:09:34.164Z,891.38
2018-08-23T00:10:34.158Z,891.37
2018-08-23T00:11:34.145Z,891.40
2018-08-23T00:12:34.142Z,891.36
2018-08-23T00:13:34.134Z,891.37
2018-08-23T00:14:34.128Z,891.38
2018-08-23T00:15:34.118Z,891.39
2018-08-23T00:16:34.118Z,891.39
2018-08-23T00:17:34.105Z,891.40
2018-08-23T00:18:34.099Z,891.43
2018-08-23T00:19:34.093Z,891.48
2018-08-23T00:20:34.082Z,891.46
2018-08-23T00:21:34.073Z,891.46
2018-08-23T00:22:34.065Z,891.46
2018-08-23T00:23:34.065Z,891.46
2018-08-23T00:24:34.057Z,891.44
2018-08-23T00:25:34.044Z,891.46
2018-08-23T00:26:34.038Z,891.41
2018-08-23T00:27:34.032Z,891.41
2018-08-23T00:28:34.022Z,891.38
2018-08-23T00:29:34.013Z,891.38
2018-08-23T00:30:34.012Z,891.39
2018-08-23T00:31:34.002Z,891.39
2018-08-23T00:32:33.995Z,891.39
2018-08-23T00:33:33.987Z,891.37
2018-08-23T00:34:33.990Z,891.41
2018-08-23T00:35:33.974Z,891.38
2018-08-23T00:36:33.971Z,891.40
2018-08-23T00:37:33.959Z,891.38
2018-08-23T00:38:33.951Z,891.35
2018-08-23T00:39:33.949Z,891.34
2018-08-23T00:40:33.940Z,891.30
2018-08-23T00:41:33.933Z,891.31
2018-08-23T00:42:33.922Z,891.28
2018-08-23T00:43:33.922Z,891.26
2018-08-23T00:44:33.910Z,891.25
2018-08-23T00:45:33.902Z,891.27
2018-08-23T00:46:33.898Z,891.28
2018-08-23T00:47:33.886Z,891.22
2018-08-23T00:48:33.881Z,891.26
2018-08-23T00:49:33.877Z,891.23
2018-08-23T00:50:33.865Z,891.24
2018-08-23T00:51:33.855Z,891.22
2018-08-23T00:52:33.849Z,891.21
2018-08-23T00:53:33.845Z,891.22
2018-08-23T00:54:33.836Z,891.20
2018-08-23T00:55:33.829Z,891.18
2018-08-23T00:56:33.820Z,891.17
2018-08-23T00:57:33.815Z,891.13
2018-08-23T00:58:33.811Z,891.14
2018-08-23T00:59:33.803Z,891.15
2018-08-23T01:00:33.792Z,891.16
2018-08-23T01:01:33.793Z,891.16
2018-08-23T01:02:33.778Z,891.11
2018-08-23T01:03:33.770Z,891.11
2018-08-23T01:04:33.764Z,891.07
2018-08-23T01:05:33.755Z,891.07
2018-08-23T01:06:33.755Z,891.08
2018-08-23T01:07:33.741Z,891.06
2018-08-23T01:08:33.730Z,891.04
2018-08-23T01:09:33.724Z,891.05
2018-08-23T01:10:33.717Z,891.03
2018-08-23T01:11:33.709Z,891.03
2018-08-23T01:12:33.703Z,891.01
2018-08-23T01:13:33.697Z,890.99
2018-08-23T01:14:33.690Z,890.99
2018-08-23T01:15:33.681Z,891.00
2018-08-23T01:16:33.677Z,891.00
2018-08-23T01:17:33.666Z,890.99
2018-08-23T01:18:33.659Z,891.05
2018-08-23T01:19:33.653Z,891.03
2018-08-23T01:20:33.642Z,890.98
2018-08-23T01:21:33.639Z,891.04
2018-08-23T01:22:33.627Z,891.02
2018-08-23T01:23:33.620Z,891.02
2018-08-23T01:24:33.612Z,891.01
2018-08-23T01:25:33.608Z,891.00
2018-08-23T01:26:33.604Z,891.00
2018-08-23T01:27:33.602Z,890.99
2018-08-23T01:28:33.581Z,890.96
2018-08-23T01:29:33.576Z,890.94
2018-08-23T01:30:33.566Z,890.96
2018-08-23T01:31:33.558Z,890.95
2018-08-23T01:32:33.545Z,890.91
2018-08-23T01:33:33.543Z,890.98
2018-08-23T01:34:33.540Z,890.95
2018-08-23T01:35:33.529Z,890.94
2018-08-23T01:36:33.528Z,890.91
2018-08-23T01:37:33.516Z,890.86
2018-08-23T01:38:33.514Z,890.88
2018-08-23T01:39:33.494Z,890.88
2018-08-23T01:40:33.489Z,890.80
2018-08-23T01:41:33.483Z,890.82
2018-08-23T01:42:33.469Z,890.78
2018-08-23T01:43:33.471Z,890.77
2018-08-23T01:44:33.465Z,890.77
2018-08-23T01:45:33.455Z,890.76
2018-08-23T01:46:33.450Z,890.76
2018-08-23T01:47:33.436Z,890.75
2018-08-23T01:48:33.432Z,890.73
2018-08-23T01:49:33.422Z,890.74
2018-08-23T01:50:33.412Z,890.76
2018-08-23T01:51:33.410Z,890.72
2018-08-23T01:52:33.403Z,890.73
2018-08-23T01:53:33.390Z,890.70
2018-08-23T01:54:33.386Z,890.68
2018-08-23T01:55:33.379Z,890.66
2018-08-23T01:56:33.375Z,890.66
2018-08-23T01:57:33.363Z,890.65
2018-08-23T01:58:33.349Z,890.62
2018-08-23T01:59:33.350Z,890.65
2018-08-23T02:00:33.340Z,890.64
2018-08-23T02:01:33.336Z,890.60
2018-08-23T02:02:33.328Z,890.63
2018-08-23T02:03:33.314Z,890.62
2018-08-23T02:04:33.310Z,890.59
2018-08-23T02:05:33.309Z,890.58
2018-08-23T02:06:33.299Z,890.58
2018-08-23T02:07:33.288Z,890.57
2018-08-23T02:08:33.278Z,890.57
2018-08-23T02:09:33.274Z,890.57
2018-08-23T02:10:33.261Z,890.56
2018-08-23T02:11:33.256Z,890.57
2018-08-23T02:12:33.245Z,890.58
2018-08-23T02:13:33.244Z,890.56
2018-08-23T02:14:33.234Z,890.58
2018-08-23T02:15:33.224Z,890.56
2018-08-23T02:16:33.217Z,890.57
2018-08-23T02:17:33.205Z,890.59
2018-08-23T02:18:33.204Z,890.60
2018-08-23T02:19:33.189Z,890.61
2018-08-23T02:20:33.188Z,890.59
2018-08-23T02:21:33.178Z,890.61
2018-08-23T02:22:33.168Z,890.59
2018-08-23T02:23:33.161Z,890.60
2018-08-23T02:24:33.157Z,890.61
2018-08-23T02:25:33.150Z,890.60
2018-08-23T02:26:33.141Z,890.65
2018-08-23T02:27:33.132Z,890.61
2018-08-23T02:28:33.122Z,890.60
2018-08-23T02:29:33.118Z,890.60
2018-08-23T02:30:33.109Z,890.62
2018-08-23T02:31:33.103Z,890.60
2018-08-23T02:32:33.090Z,890.65
2018-08-23T02:33:33.086Z,890.65
2018-08-23T02:34:33.076Z,890.67
2018-08-23T02:35:33.068Z,890.64
2018-08-23T02:36:33.067Z,890.64
2018-08-23T02:37:33.054Z,890.62
2018-08-23T02:38:33.042Z,890.60
2018-08-23T02:39:33.038Z,890.54
2018-08-23T02:40:33.033Z,890.54
2018-08-23T02:41:33.019Z,890.51
2018-08-23T02:42:33.019Z,890.52
2018-08-23T02:43:33.006Z,890.51
2018-08-23T02:44:33.040Z,890.51
2018-08-23T02:45:32.991Z,890.52
2018-08-23T02:46:32.981Z,890.47
2018-08-23T02:47:32.979Z,890.48
2018-08-23T02:48:32.968Z,890.46
2018-08-23T02:49:32.960Z,890.48
2018-08-23T02:50:32.949Z,890.46
2018-08-23T02:51:32.942Z,890.45
2018-08-23T02:52:32.932Z,890.48
2018-08-23T02:53:32.922Z,890.47
2018-08-23T02:54:32.917Z,890.44
2018-08-23T02:55:32.910Z,890.46
2018-08-23T02:56:32.898Z,890.44
2018-08-23T02:57:32.895Z,890.44
2018-08-23T02:58:32.884Z,890.41
2018-08-23T02:59:32.879Z,890.38
2018-08-23T03:00:32.969Z,890.38
2018-08-23T03:01:32.865Z,890.38
2018-08-23T03:02:32.855Z,890.39
2018-08-23T03:03:32.849Z,890.35
2018-08-23T03:04:32.840Z,890.37
2018-08-23T03:05:32.828Z,890.33
2018-08-23T03:06:32.843Z,890.33
2018-08-23T03:07:32.817Z,890.31
2018-08-23T03:08:32.804Z,890.32
2018-08-23T03:09:32.798Z,890.29
2018-08-23T03:10:32.792Z,890.29
2018-08-23T03:11:32.782Z,890.27
2018-08-23T03:12:32.771Z,890.24
2018-08-23T03:13:32.774Z,890.21
2018-08-23T03:14:32.755Z,890.21
2018-08-23T03:15:32.753Z,890.22
2018-08-23T03:16:32.744Z,890.18
2018-08-23T03:17:32.742Z,890.19
2018-08-23T03:18:32.726Z,890.17
2018-08-23T03:19:32.718Z,890.14
2018-08-23T03:20:32.707Z,890.16
2018-08-23T03:21:32.699Z,890.15
2018-08-23T03:22:32.695Z,890.15
2018-08-23T03:23:32.687Z,890.15
2018-08-23T03:24:32.674Z,890.16
2018-08-23T03:25:32.669Z,890.14
2018-08-23T03:26:32.659Z,890.16
2018-08-23T03:27:32.653Z,890.14
2018-08-23T03:28:32.647Z,890.16
2018-08-23T03:29:32.636Z,890.13
2018-08-23T03:30:32.630Z,890.13
2018-08-23T03:31:32.622Z,890.14
2018-08-23T03:32:32.623Z,890.14
2018-08-23T03:33:32.612Z,890.10
2018-08-23T03:34:32.598Z,890.06
2018-08-23T03:35:32.590Z,890.10
2018-08-23T03:36:32.583Z,890.12
2018-08-23T03:37:32.573Z,890.07
2018-08-23T03:38:32.563Z,890.10
2018-08-23T03:39:32.555Z,890.07
2018-08-23T03:40:32.551Z,890.08
2018-08-23T03:41:32.545Z,890.07
2018-08-23T03:42:32.529Z,890.08
2018-08-23T03:43:32.522Z,890.05
2018-08-23T03:44:32.516Z,890.02
2018-08-23T03:45:32.506Z,890.03
2018-08-23T03:46:32.494Z,889.99
2018-08-23T03:47:32.490Z,889.98
2018-08-23T03:48:32.490Z,889.95
2018-08-23T03:49:32.476Z,889.93
2018-08-23T03:50:32.464Z,889.92
2018-08-23T03:51:32.462Z,889.94
2018-08-23T03:52:32.524Z,889.88
2018-08-23T03:53:32.445Z,889.91
2018-08-23T03:54:32.433Z,889.89
2018-08-23T03:55:32.426Z,889.83
2018-08-23T03:56:32.420Z,889.84
2018-08-23T03:57:32.414Z,889.83
2018-08-23T03:58:32.408Z,889.85
2018-08-23T03:59:32.392Z,889.82
2018-08-23T04:00:32.387Z,889.82
2018-08-23T04:01:32.379Z,889.83
2018-08-23T04:02:32.375Z,889.85
2018-08-23T04:03:32.366Z,889.83
2018-08-23T04:04:32.355Z,889.85
2018-08-23T04:05:32.343Z,889.84
2018-08-23T04:06:32.337Z,889.86
2018-08-23T04:07:32.344Z,889.84
2018-08-23T04:08:32.322Z,889.84
2018-08-23T04:09:32.311Z,889.86
2018-08-23T04:10:32.306Z,889.87
2018-08-23T04:11:32.306Z,889.83
2018-08-23T04:12:32.300Z,889.80
2018-08-23T04:13:32.286Z,889.83
2018-08-23T04:14:32.275Z,889.82
2018-08-23T04:15:32.402Z,889.79
2018-08-23T04:16:32.259Z,889.78
2018-08-23T04:17:32.249Z,889.81
2018-08-23T04:18:32.241Z,889.80
2018-08-23T04:19:32.235Z,889.77
2018-08-23T04:20:32.226Z,889.77
2018-08-23T04:21:32.215Z,889.78
2018-08-23T04:22:32.214Z,889.76
2018-08-23T04:23:32.204Z,889.78
2018-08-23T04:24:32.192Z,889.78
2018-08-23T04:25:32.187Z,889.75
2018-08-23T04:26:32.174Z,889.80
2018-08-23T04:27:32.170Z,889.77
2018-08-23T04:28:32.160Z,889.72
2018-08-23T04:29:32.152Z,889.75
2018-08-23T04:30:32.152Z,889.76
2018-08-23T04:31:32.133Z,889.71
2018-08-23T04:32:32.131Z,889.71
2018-08-23T04:33:32.119Z,889.73
2018-08-23T04:34:32.111Z,889.73
2018-08-23T04:35:32.105Z,889.75
2018-08-23T04:36:38.742Z,889.73
2018-08-23T04:37:32.093Z,889.73
2018-08-23T04:38:32.081Z,889.77
2018-08-23T04:39:32.071Z,889.77
2018-08-23T04:40:32.065Z,889.74
2018-08-23T04:41:32.053Z,889.72
2018-08-23T04:42:32.052Z,889.76
2018-08-23T04:43:32.040Z,889.75
2018-08-23T04:44:32.068Z,889.74
2018-08-23T04:45:32.026Z,889.72
2018-08-23T04:46:32.014Z,889.73
2018-08-23T04:47:32.010Z,889.73
2018-08-23T04:48:32.003Z,889.72
2018-08-23T04:49:31.991Z,889.66
2018-08-23T04:50:31.983Z,889.69
2018-08-23T04:51:31.983Z,889.66
2018-08-23T04:52:31.971Z,889.68
2018-08-23T04:53:31.959Z,889.66
2018-08-23T04:54:31.951Z,889.63
2018-08-23T04:55:31.942Z,889.67
2018-08-23T04:56:31.932Z,889.68
2018-08-23T04:57:31.924Z,889.70
2018-08-23T04:58:31.916Z,889.71
2018-08-23T04:59:31.908Z,889.67
2018-08-23T05:00:31.907Z,889.67
2018-08-23T05:01:31.892Z,889.69
2018-08-23T05:02:31.884Z,889.73
2018-08-23T05:03:31.878Z,889.71
2018-08-23T05:04:31.869Z,889.74
2018-08-23T05:05:31.862Z,889.76
2018-08-23T05:06:31.849Z,889.76
2018-08-23T05:07:31.849Z,889.75
2018-08-23T05:08:31.837Z,889.77
2018-08-23T05:09:31.827Z,889.81
2018-08-23T05:10:31.825Z,889.82
2018-08-23T05:11:31.813Z,889.86
2018-08-23T05:12:31.804Z,889.89
2018-08-23T05:13:31.800Z,889.89
2018-08-23T05:14:31.788Z,889.91
2018-08-23T05:15:31.780Z,889.91
2018-08-23T05:16:31.775Z,889.92
2018-08-23T05:17:31.770Z,889.88
2018-08-23T05:18:31.756Z,889.91
2018-08-23T05:19:31.750Z,889.92
2018-08-23T05:20:31.746Z,889.93
2018-08-23T05:21:31.731Z,889.92
2018-08-23T05:22:31.727Z,889.92
2018-08-23T05:23:31.717Z,889.96
2018-08-23T05:24:31.710Z,889.95
2018-08-23T05:25:31.704Z,889.96
2018-08-23T05:26:31.692Z,889.96
2018-08-23T05:27:31.684Z,889.96
2018-08-23T05:28:31.673Z,889.95
2018-08-23T05:29:31.669Z,889.96
2018-08-23T05:30:31.657Z,889.96
2018-08-23T05:31:31.649Z,889.94
2018-08-23T05:32:31.643Z,889.95
2018-08-23T05:33:31.637Z,889.92
2018-08-23T05:34:31.635Z,889.98
2018-08-23T05:35:31.625Z,890.00
2018-08-23T05:36:31.606Z,889.97
2018-08-23T05:37:31.606Z,889.98
2018-08-23T05:38:31.592Z,889.98
2018-08-23T05:39:31.587Z,889.94
2018-08-23T05:40:31.574Z,889.94
2018-08-23T05:41:31.569Z,889.96
2018-08-23T05:42:31.562Z,889.95
2018-08-23T05:43:31.554Z,889.92
2018-08-23T05:44:31.545Z,889.92
2018-08-23T05:45:31.545Z,889.96
2018-08-23T05:46:31.529Z,889.97
2018-08-23T05:47:31.572Z,889.94
2018-08-23T05:48:31.525Z,889.97
2018-08-23T05:49:31.507Z,889.98
2018-08-23T05:50:31.501Z,889.97
2018-08-23T05:51:31.487Z,889.99
2018-08-23T05:52:31.488Z,889.98
2018-08-23T05:53:31.475Z,889.93
2018-08-23T05:54:31.460Z,889.93
2018-08-23T05:55:31.457Z,889.96
2018-08-23T05:56:31.448Z,889.95
2018-08-23T05:57:31.447Z,889.97
2018-08-23T05:58:31.433Z,889.94
2018-08-23T05:59:31.427Z,889.95
2018-08-23T06:00:31.422Z,889.94
2018-08-23T06:01:31.418Z,889.94
2018-08-23T06:02:31.402Z,889.96
2018-08-23T06:03:31.397Z,889.92
2018-08-23T06:04:31.390Z,889.92
2018-08-23T06:05:31.382Z,889.88
2018-08-23T06:06:31.368Z,889.90
2018-08-23T06:07:31.366Z,889.93
2018-08-23T06:08:31.361Z,889.92
2018-08-23T06:09:31.351Z,889.93
2018-08-23T06:10:31.341Z,889.92
2018-08-23T06:11:31.339Z,889.92
2018-08-23T06:12:31.326Z,889.94
2018-08-23T06:13:31.319Z,889.86
2018-08-23T06:14:31.311Z,889.90
2018-08-23T06:15:31.303Z,889.87
2018-08-23T06:16:31.292Z,889.85
2018-08-23T06:17:31.286Z,889.82
2018-08-23T06:18:31.280Z,889.80
2018-08-23T06:19:31.270Z,889.84
2018-08-23T06:20:31.262Z,889.80
2018-08-23T06:21:31.259Z,889.80
2018-08-23T06:22:31.251Z,889.79
2018-08-23T06:23:31.242Z,889.74
2018-08-23T06:24:31.243Z,889.77
2018-08-23T06:25:31.231Z,889.76
2018-08-23T06:26:31.219Z,889.71
2018-08-23T06:27:31.305Z,889.70
2018-08-23T06:28:31.211Z,889.72
2018-08-23T06:29:31.192Z,889.73
2018-08-23T06:30:31.184Z,889.70
2018-08-23T06:31:31.181Z,889.72
2018-08-23T06:32:31.171Z,889.70
2018-08-23T06:33:31.299Z,889.70
2018-08-23T06:34:31.159Z,889.73
2018-08-23T06:35:31.186Z,889.73
2018-08-23T06:36:31.145Z,889.71
2018-08-23T06:37:31.138Z,889.70
2018-08-23T06:38:31.152Z,889.69
2018-08-23T06:39:31.117Z,889.72
2018-08-23T06:40:31.112Z,889.70
2018-08-23T06:41:31.104Z,889.79
2018-08-23T06:42:31.096Z,889.75
2018-08-23T06:43:31.088Z,889.78
2018-08-23T06:44:31.134Z,889.80
2018-08-23T06:45:31.075Z,889.80
2018-08-23T06:46:31.075Z,889.80
2018-08-23T06:47:31.058Z,889.81
2018-08-23T06:48:31.056Z,889.75
2018-08-23T06:49:31.045Z,889.79
2018-08-23T06:50:31.036Z,889.78
2018-08-23T06:51:31.032Z,889.78
2018-08-23T06:52:31.023Z,889.73
2018-08-23T06:53:31.013Z,889.72
2018-08-23T06:54:31.003Z,889.75
2018-08-23T06:55:30.999Z,889.72
2018-08-23T06:56:30.988Z,889.72
2018-08-23T06:57:30.988Z,889.72
2018-08-23T06:58:30.974Z,889.71
2018-08-23T06:59:30.972Z,889.73
2018-08-23T07:00:30.965Z,889.71
2018-08-23T07:01:30.954Z,889.74
2018-08-23T07:02:30.948Z,889.74
2018-08-23T07:03:30.936Z,889.76
2018-08-23T07:04:30.929Z,889.75
2018-08-23T07:05:31.009Z,889.75
2018-08-23T07:06:30.926Z,889.76
2018-08-23T07:07:30.905Z,889.75
2018-08-23T07:08:30.911Z,889.76
2018-08-23T07:09:30.900Z,889.75
2018-08-23T07:10:30.934Z,889.75
2018-08-23T07:11:30.879Z,889.73
2018-08-23T07:12:30.871Z,889.71
2018-08-23T07:13:30.860Z,889.68
2018-08-23T07:14:30.857Z,889.69
2018-08-23T07:15:30.849Z,889.68
2018-08-23T07:16:30.844Z,889.70
2018-08-23T07:17:30.897Z,889.69
2018-08-23T07:18:30.828Z,889.68
2018-08-23T07:19:30.822Z,889.65
2018-08-23T07:20:30.813Z,889.63
2018-08-23T07:21:30.809Z,889.64
2018-08-23T07:22:30.825Z,889.66
2018-08-23T07:23:30.795Z,889.66
2018-08-23T07:24:30.789Z,889.58
2018-08-23T07:25:30.776Z,889.62
2018-08-23T07:26:30.774Z,889.62
2018-08-23T07:27:30.771Z,889.59
2018-08-23T07:28:30.758Z,889.63
2018-08-23T07:29:30.755Z,889.60
2018-08-23T07:30:30.742Z,889.60
2018-08-23T07:31:30.781Z,889.62
2018-08-23T07:32:30.731Z,889.60
2018-08-23T07:33:30.768Z,889.62
2018-08-23T07:34:30.721Z,889.61
2018-08-23T07:35:30.709Z,889.60
2018-08-23T07:36:30.704Z,889.60
2018-08-23T07:37:30.694Z,889.57
2018-08-23T07:38:30.690Z,889.59
2018-08-23T07:39:30.683Z,889.61
2018-08-23T07:40:30.708Z,889.57
2018-08-23T07:41:30.672Z,889.59
2018-08-23T07:42:30.656Z,889.57
2018-08-23T07:43:30.654Z,889.59
2018-08-23T07:44:30.647Z,889.58
2018-08-23T07:45:30.641Z,889.59
2018-08-23T07:46:30.639Z,889.57
2018-08-23T07:47:30.635Z,889.59
2018-08-23T07:48:30.693Z,889.58
2018-08-23T07:49:30.619Z,889.61
2018-08-23T07:50:30.611Z,889.59
2018-08-23T07:51:30.604Z,889.59
2018-08-23T07:52:30.617Z,889.54
2018-08-23T07:53:30.696Z,889.57
2018-08-23T07:54:30.582Z,889.59
2018-08-23T07:55:30.574Z,889.58
2018-08-23T07:56:30.568Z,889.60
2018-08-23T07:57:30.564Z,889.61
2018-08-23T07:58:30.558Z,889.62
2018-08-23T07:59:30.548Z,889.60
2018-08-23T08:00:30.545Z,889.59
2018-08-23T08:01:30.535Z,889.58
2018-08-23T08:02:30.535Z,889.58
2018-08-23T08:03:30.533Z,889.57
2018-08-23T08:04:30.518Z,889.56
2018-08-23T08:05:30.512Z,889.59
2018-08-23T08:06:30.504Z,889.56
2018-08-23T08:07:30.498Z,889.55
2018-08-23T08:08:30.494Z,889.52
2018-08-23T08:09:30.488Z,889.55
2018-08-23T08:10:30.484Z,889.53
2018-08-23T08:11:30.476Z,889.54
2018-08-23T08:12:30.503Z,889.55
2018-08-23T08:13:30.461Z,889.52
2018-08-23T08:14:30.452Z,889.51
2018-08-23T08:15:30.449Z,889.48
2018-08-23T08:16:30.443Z,889.46
2018-08-23T08:17:30.439Z,889.48
2018-08-23T08:18:30.433Z,889.48
2018-08-23T08:19:30.427Z,889.48
2018-08-23T08:20:30.414Z,889.49
2018-08-23T08:21:30.467Z,889.47
2018-08-23T08:22:30.404Z,889.45
2018-08-23T08:23:30.393Z,889.46
2018-08-23T08:24:30.395Z,889.43
2018-08-23T08:25:30.390Z,889.45
2018-08-23T08:26:30.385Z,889.47
2018-08-23T08:27:30.376Z,889.44
2018-08-23T08:28:30.372Z,889.42
2018-08-23T08:29:30.364Z,889.40
2018-08-23T08:30:30.362Z,889.38
2018-08-23T08:31:30.353Z,889.42
2018-08-23T08:32:30.345Z,889.42
2018-08-23T08:33:30.339Z,889.41
2018-08-23T08:34:30.331Z,889.37
2018-08-23T08:35:30.328Z,889.36
2018-08-23T08:36:30.323Z,889.36
2018-08-23T08:37:30.318Z,889.33
2018-08-23T08:38:30.316Z,889.36
2018-08-23T08:39:30.304Z,889.36
2018-08-23T08:40:30.299Z,889.35
2018-08-23T08:41:30.293Z,889.36
2018-08-23T08:42:30.291Z,889.35
2018-08-23T08:43:30.285Z,889.35
2018-08-23T08:44:30.277Z,889.34
2018-08-23T08:45:30.273Z,889.36
2018-08-23T08:46:30.259Z,889.35
2018-08-23T08:47:30.263Z,889.37
2018-08-23T08:48:30.248Z,889.37
2018-08-23T08:49:30.249Z,889.36
2018-08-23T08:50:30.297Z,889.36
2018-08-23T08:51:30.238Z,889.37
2018-08-23T08:52:30.229Z,889.39
2018-08-23T08:53:30.226Z,889.35
2018-08-23T08:54:30.218Z,889.37
2018-08-23T08:55:30.208Z,889.35
2018-08-23T08:56:30.209Z,889.33
2018-08-23T08:57:30.201Z,889.37
2018-08-23T08:58:30.191Z,889.34
2018-08-23T08:59:30.192Z,889.33
2018-08-23T09:00:30.185Z,889.32
2018-08-23T09:01:30.181Z,889.30
2018-08-23T09:02:30.173Z,889.33
2018-08-23T09:03:30.169Z,889.33
2018-08-23T09:04:30.158Z,889.32
2018-08-23T09:05:30.154Z,889.32
2018-08-23T09:06:30.156Z,889.29
2018-08-23T09:07:30.146Z,889.32
2018-08-23T09:08:30.142Z,889.30
2018-08-23T09:09:30.142Z,889.28
2018-08-23T09:10:30.134Z,889.31
2018-08-23T09:11:30.126Z,889.30
2018-08-23T09:12:30.122Z,889.30
2018-08-23T09:13:30.115Z,889.28
2018-08-23T09:14:30.107Z,889.31
2018-08-23T09:15:30.104Z,889.29
2018-08-23T09:16:30.097Z,889.24
2018-08-23T09:17:30.104Z,889.24
2018-08-23T09:18:30.085Z,889.22
2018-08-23T09:19:30.081Z,889.22
2018-08-23T09:20:30.113Z,889.24
2018-08-23T09:21:30.075Z,889.21
2018-08-23T09:22:30.066Z,889.22
2018-08-23T09:23:30.062Z,889.21
2018-08-23T09:24:30.060Z,889.22
2018-08-23T09:25:30.049Z,889.19
2018-08-23T09:26:30.042Z,889.22
2018-08-23T09:27:30.038Z,889.20
2018-08-23T09:28:30.033Z,889.18
2018-08-23T09:29:30.027Z,889.17
2018-08-23T09:30:30.021Z,889.18
2018-08-23T09:31:30.019Z,889.18
2018-08-23T09:32:30.010Z,889.17
2018-08-23T09:33:30.008Z,889.19
2018-08-23T09:34:29.999Z,889.18
2018-08-23T09:35:29.995Z,889.13
2018-08-23T09:36:29.990Z,889.14
2018-08-23T09:37:29.986Z,889.13
2018-08-23T09:38:29.976Z,889.06
2018-08-23T09:39:29.984Z,889.11
2018-08-23T09:40:29.978Z,889.12
2018-08-23T09:41:29.962Z,889.09
2018-08-23T09:42:29.958Z,889.09
2018-08-23T09:43:29.946Z,889.09
2018-08-23T09:44:29.948Z,889.07
2018-08-23T09:45:29.937Z,889.09
2018-08-23T09:46:29.941Z,889.09
2018-08-23T09:47:29.931Z,889.06
2018-08-23T09:48:29.927Z,889.06
2018-08-23T09:49:29.925Z,889.03
2018-08-23T09:50:29.915Z,889.03
2018-08-23T09:51:29.907Z,889.00
2018-08-23T09:52:29.905Z,889.00
2018-08-23T09:53:29.900Z,889.00
2018-08-23T09:54:29.892Z,889.01
2018-08-23T09:55:29.888Z,888.97
2018-08-23T09:56:29.897Z,888.95
2018-08-23T09:57:29.880Z,888.93
2018-08-23T09:58:29.870Z,888.93
2018-08-23T09:59:29.866Z,888.89
2018-08-23T10:00:29.861Z,888.89
2018-08-23T10:01:29.859Z,888.92
2018-08-23T10:02:29.847Z,888.88
2018-08-23T10:03:29.845Z,888.89
2018-08-23T10:04:29.850Z,888.87
2018-08-23T10:05:29.836Z,888.87
2018-08-23T10:06:29.832Z,888.84
2018-08-23T10:07:29.821Z,888.82
2018-08-23T10:08:29.822Z,888.85
2018-08-23T10:09:29.816Z,888.81
2018-08-23T10:10:29.808Z,888.82
2018-08-23T10:11:29.917Z,888.82
2018-08-23T10:12:29.803Z,888.80
2018-08-23T10:13:29.833Z,888.78
2018-08-23T10:14:29.787Z,888.77
2018-08-23T10:15:29.792Z,888.75
2018-08-23T10:16:29.784Z,888.75
2018-08-23T10:17:29.770Z,888.73
2018-08-23T10:18:29.770Z,888.75
2018-08-23T10:19:29.768Z,888.72
2018-08-23T10:20:29.763Z,888.72
2018-08-23T10:21:29.753Z,888.71
2018-08-23T10:22:29.750Z,888.68
2018-08-23T10:23:29.744Z,888.70
2018-08-23T10:24:29.736Z,888.68
2018-08-23T10:25:29.731Z,888.64
2018-08-23T10:26:29.786Z,888.64
2018-08-23T10:27:29.721Z,888.60
2018-08-23T10:28:29.715Z,888.61
2018-08-23T10:29:29.712Z,888.62
2018-08-23T10:30:29.712Z,888.61
2018-08-23T10:31:29.705Z,888.59
2018-08-23T10:32:29.706Z,888.61
2018-08-23T10:33:29.695Z,888.60
2018-08-23T10:34:29.693Z,888.58
2018-08-23T10:35:29.682Z,888.54
2018-08-23T10:36:29.679Z,888.61
2018-08-23T10:37:29.673Z,888.60
2018-08-23T10:38:29.672Z,888.62
2018-08-23T10:39:29.668Z,888.62
2018-08-23T10:40:29.662Z,888.60
2018-08-23T10:41:29.650Z,888.62
2018-08-23T10:42:29.656Z,888.60
2018-08-23T10:43:29.645Z,888.58
2018-08-23T10:44:29.652Z,888.60
2018-08-23T10:45:29.642Z,888.59
2018-08-23T10:46:29.625Z,888.58
2018-08-23T10:47:29.622Z,888.59
2018-08-23T10:48:29.621Z,888.59
2018-08-23T10:49:29.613Z,888.59
2018-08-23T10:50:29.641Z,888.56
2018-08-23T10:51:29.606Z,888.55
2018-08-23T10:52:29.601Z,888.57
2018-08-23T10:53:29.586Z,888.54
2018-08-23T10:54:29.586Z,888.54
2018-08-23T10:55:29.580Z,888.53
2018-08-23T10:56:29.575Z,888.53
2018-08-23T10:57:29.573Z,888.50
2018-08-23T10:58:29.567Z,888.52
2018-08-23T10:59:29.567Z,888.51
2018-08-23T11:00:29.563Z,888.50
2018-08-23T11:01:29.557Z,888.50
2018-08-23T11:02:29.549Z,888.52
2018-08-23T11:03:29.544Z,888.48
2018-08-23T11:04:29.538Z,888.49
2018-08-23T11:05:29.532Z,888.45
2018-08-23T11:06:29.524Z,888.45
2018-08-23T11:07:29.519Z,888.44
2018-08-23T11:08:29.516Z,888.45
2018-08-23T11:09:29.514Z,888.42
2018-08-23T11:10:29.504Z,888.42
2018-08-23T11:11:29.502Z,888.39
2018-08-23T11:12:29.494Z,888.42
2018-08-23T11:13:29.491Z,888.36
2018-08-23T11:14:29.487Z,888.38
2018-08-23T11:15:29.480Z,888.36
2018-08-23T11:16:29.475Z,888.35
2018-08-23T11:17:29.476Z,888.29
2018-08-23T11:18:29.465Z,888.33
2018-08-23T11:19:29.459Z,888.30
2018-08-23T11:20:29.454Z,888.31
2018-08-23T11:21:29.449Z,888.27
2018-08-23T11:22:29.438Z,888.30
2018-08-23T11:23:29.439Z,888.28
2018-08-23T11:24:29.432Z,888.28
2018-08-23T11:25:29.428Z,888.28
2018-08-23T11:26:29.420Z,888.28
2018-08-23T11:27:29.416Z,888.24
2018-08-23T11:28:29.407Z,888.25
2018-08-23T11:29:29.457Z,888.23
2018-08-23T11:30:29.401Z,888.22
2018-08-23T11:31:29.397Z,888.22
2018-08-23T11:32:29.393Z,888.20
2018-08-23T11:33:29.389Z,888.23
2018-08-23T11:34:29.382Z,888.15
2018-08-23T11:35:29.378Z,888.20
2018-08-23T11:36:29.376Z,888.18
2018-08-23T11:37:29.361Z,888.19
2018-08-23T11:38:29.360Z,888.15
2018-08-23T11:39:29.361Z,888.12
2018-08-23T11:40:29.349Z,888.12
2018-08-23T11:41:29.345Z,888.09
2018-08-23T11:42:29.337Z,888.10
2018-08-23T11:43:29.335Z,888.08
2018-08-23T11:44:29.335Z,888.11
2018-08-23T11:45:29.326Z,888.10
2018-08-23T11:46:29.322Z,888.08
2018-08-23T11:47:29.313Z,888.08
2018-08-23T11:48:29.309Z,888.04
2018-08-23T11:49:29.301Z,888.06
2018-08-23T11:50:29.301Z,888.04
2018-08-23T11:51:29.289Z,888.00
2018-08-23T11:52:29.288Z,888.02
2018-08-23T11:53:29.525Z,888.02
2018-08-23T11:54:29.284Z,887.98
2018-08-23T11:55:29.272Z,888.04
2018-08-23T11:56:29.268Z,888.00
2018-08-23T11:57:29.272Z,888.03
2018-08-23T11:58:29.265Z,888.04
2018-08-23T11:59:29.258Z,888.01
2018-08-23T12:00:29.251Z,887.98
2018-08-23T12:01:29.243Z,887.98
2018-08-23T12:02:29.237Z,888.00
2018-08-23T12:03:29.235Z,887.98
2018-08-23T12:04:29.232Z,887.97
2018-08-23T12:05:29.229Z,887.98
2018-08-23T12:06:29.252Z,887.99
2018-08-23T12:07:29.211Z,888.02
2018-08-23T12:08:29.212Z,887.98
2018-08-23T12:09:29.207Z,887.94
2018-08-23T12:10:29.205Z,887.92
2018-08-23T12:11:29.208Z,887.92
2018-08-23T12:12:29.194Z,887.96
2018-08-23T12:13:29.200Z,887.99
2018-08-23T12:14:29.188Z,887.97
2018-08-23T12:15:29.222Z,887.93
2018-08-23T12:16:29.179Z,887.95
2018-08-23T12:17:29.174Z,887.95
2018-08-23T12:18:29.170Z,887.97
2018-08-23T12:19:29.164Z,887.95
2018-08-23T12:20:29.161Z,887.98
2018-08-23T12:21:29.160Z,887.98
2018-08-23T12:22:29.158Z,887.96
2018-08-23T12:23:29.151Z,887.99
2018-08-23T12:24:29.138Z,887.95
2018-08-23T12:25:29.146Z,887.96
2018-08-23T12:26:29.138Z,887.95
2018-08-23T12:27:29.128Z,887.96
2018-08-23T12:28:29.125Z,887.96